Yemanja — FAD7681 — position and weather

sailwx.info

Track history (hours):
 
Tides and Currents Weather Stations Pressure Air Temp Water Temp Dewpoint Dewpoint Depression Visibility Wind Speed Wind Dir Waves Ship Positions

Yemanja

Last reported at 2018-Feb-14 20:27 UTC. Time now 2018-Feb-25 13:47 UTC.
Position N 16°60' W 062°03'.
Warning: this ship's position is 10 days out of date.

Length 20 m.

Type: Pleasure craft. MMSI: 227428150.

Date/timePositionNaut miles runAvg speedWind from/ knotsBaromVisibWave heightAir tempDewpointWater temp
2018-Feb-14 20:27N 16°60' W 062°03'4 9.4
2018-Feb-14 20:00N 16°56' W 062°02'5 9.6
2018-Feb-14 19:30N 16°51' W 061°60'5 9.6
2018-Feb-14 19:00N 16°47' W 061°58'5 9.4
2018-Feb-14 18:30N 16°42' W 061°56'5 9.3
2018-Feb-14 17:59N 16°38' W 061°54'5 9.3
2018-Feb-14 17:29N 16°33' W 061°53'  
2018-Feb-09 22:10N 14°27' W 060°58'6 0.1
2018-Feb-08 01:27N 14°28' W 060°52'0 0.0
2018-Feb-08 00:39N 14°28' W 060°52'0 0.0
2018-Feb-08 00:15N 14°28' W 060°52'0 0.0
2018-Feb-08 00:00N 14°28' W 060°52'0 0.0
2018-Feb-07 23:24N 14°28' W 060°52'0 0.0
2018-Feb-07 23:00N 14°28' W 060°52'0 0.0
2018-Feb-07 22:30N 14°28' W 060°52'0 0.0
2018-Feb-07 22:00N 14°28' W 060°52'0 0.0
2018-Feb-07 21:30N 14°28' W 060°52'0 0.0
2018-Feb-07 09:30N 14°28' W 060°52'0 0.0
2018-Feb-07 09:00N 14°28' W 060°52'0 0.0
2018-Feb-07 08:30N 14°28' W 060°52'0 0.0
2018-Feb-07 08:00N 14°28' W 060°52'0 0.0
2018-Feb-07 07:30N 14°28' W 060°52'0 0.0
2018-Feb-07 07:00N 14°28' W 060°52'0 0.0
2018-Feb-07 06:30N 14°28' W 060°52'0 0.0
2018-Feb-07 06:00N 14°28' W 060°52'0 0.0
2018-Feb-07 05:30N 14°28' W 060°52'0 0.0
2018-Feb-07 05:00N 14°28' W 060°52'0 0.0
2018-Feb-07 04:30N 14°28' W 060°52'0 0.0
2018-Feb-07 03:57N 14°28' W 060°52'0 0.0
2018-Feb-07 03:27N 14°28' W 060°52'0 0.0
2018-Feb-07 03:00N 14°28' W 060°52'0 0.0
2018-Feb-07 02:30N 14°28' W 060°52'0 0.0
2018-Feb-07 01:57N 14°28' W 060°52'0 0.0
2018-Feb-07 01:27N 14°28' W 060°52'0 0.0
2018-Feb-07 01:00N 14°28' W 060°52'0 0.0
2018-Feb-07 00:30N 14°28' W 060°52'0 0.0
2018-Feb-07 00:00N 14°28' W 060°52'0 0.0
2018-Feb-06 23:30N 14°28' W 060°52'0 0.0
2018-Feb-06 23:00N 14°28' W 060°52'0 0.0
2018-Feb-06 22:30N 14°28' W 060°52'0 0.0
2018-Feb-06 22:00N 14°28' W 060°52'0 0.0
2018-Feb-06 21:27N 14°28' W 060°52'0 0.0
2018-Feb-06 21:00N 14°28' W 060°52'0 0.0
2018-Feb-06 20:27N 14°28' W 060°52'0 0.0
2018-Feb-06 20:00N 14°28' W 060°52'0 0.0
2018-Feb-06 19:30N 14°28' W 060°52'0 0.0
2018-Feb-06 19:00N 14°28' W 060°52'0 0.0
2018-Feb-06 18:30N 14°28' W 060°52'0 0.0
2018-Feb-06 17:54N 14°28' W 060°52'0 0.0
2018-Feb-06 17:30N 14°28' W 060°52'0 0.0
2018-Feb-06 16:57N 14°28' W 060°52'0 0.0
2018-Feb-06 16:27N 14°28' W 060°52'0 0.0
2018-Feb-06 16:00N 14°28' W 060°52'0 0.0
2018-Feb-06 15:30N 14°28' W 060°52'0 0.0
2018-Feb-06 15:00N 14°28' W 060°52'0 0.0
2018-Feb-06 14:30N 14°28' W 060°52'0 0.0
2018-Feb-06 14:00N 14°28' W 060°52'0 0.0
2018-Feb-06 13:30N 14°28' W 060°52'0 0.0
2018-Feb-06 12:57N 14°28' W 060°52'0 0.0
2018-Feb-06 12:30N 14°28' W 060°52'0 0.0
2018-Feb-06 11:57N 14°28' W 060°52'0 0.0
2018-Feb-06 11:24N 14°28' W 060°52'0 0.0
2018-Feb-06 10:57N 14°28' W 060°52'0 0.0
2018-Feb-06 10:30N 14°28' W 060°52'0 0.0
2018-Feb-06 10:00N 14°28' W 060°52'0 0.0
2018-Feb-06 09:30N 14°28' W 060°52'0 0.0
2018-Feb-06 09:00N 14°28' W 060°52'0 0.0
2018-Feb-06 08:27N 14°28' W 060°52'0 0.0
2018-Feb-06 08:00N 14°28' W 060°52'0 0.0
2018-Feb-06 07:30N 14°28' W 060°52'0 0.0
2018-Feb-06 07:00N 14°28' W 060°52'0 0.0
2018-Feb-06 06:30N 14°28' W 060°52'0 0.0
2018-Feb-06 05:57N 14°28' W 060°52'0 0.0
2018-Feb-06 05:30N 14°28' W 060°52'0 0.0
2018-Feb-06 05:00N 14°28' W 060°52'0 0.0
2018-Feb-06 04:30N 14°28' W 060°52'0 0.0
2018-Feb-06 04:00N 14°28' W 060°52'0 0.0
2018-Feb-06 03:21N 14°28' W 060°52'0 0.0
2018-Feb-06 02:57N 14°28' W 060°52'0 0.0
2018-Feb-06 02:24N 14°28' W 060°52'0 0.0
2018-Feb-06 01:21N 14°28' W 060°52'0 0.0
2018-Feb-06 00:54N 14°28' W 060°52'0 0.0
2018-Feb-05 23:54N 14°28' W 060°52'0 0.0
2018-Feb-05 23:24N 14°28' W 060°52'0 0.0
2018-Feb-05 22:48N 14°28' W 060°52'0 0.0
2018-Feb-05 22:30N 14°28' W 060°52'0 0.0
2018-Feb-05 22:00N 14°28' W 060°52'0 0.0
2018-Feb-05 20:48N 14°28' W 060°52'0 0.0
2018-Feb-05 20:24N 14°28' W 060°52'0 0.0
2018-Feb-05 20:00N 14°28' W 060°52'0 0.0
2018-Feb-05 19:30N 14°28' W 060°52'0 0.0
2018-Feb-05 19:00N 14°28' W 060°52'0 0.0
2018-Feb-05 18:18N 14°28' W 060°52'0 0.0
2018-Feb-05 18:00N 14°28' W 060°52'0 0.0
2018-Feb-05 17:18N 14°28' W 060°52'0 0.0
2018-Feb-05 17:00N 14°28' W 060°52'0 0.0
2018-Feb-05 16:09N 14°28' W 060°52'0 0.0
2018-Feb-05 16:00N 14°28' W 060°52'0 0.0
2018-Feb-05 15:24N 14°28' W 060°52'0 0.0
2018-Feb-05 15:00N 14°28' W 060°52'0 0.0
2018-Feb-05 14:30N 14°28' W 060°52'0 0.0
2018-Feb-05 13:57N 14°28' W 060°52'0 0.0
2018-Feb-05 13:30N 14°28' W 060°52'0 0.1
2018-Feb-05 13:00N 14°28' W 060°52'0 0.0
2018-Feb-05 12:30N 14°28' W 060°52'0 0.0
2018-Feb-05 12:00N 14°28' W 060°52'0 0.0
2018-Feb-05 11:30N 14°28' W 060°52'0 0.0
2018-Feb-05 11:00N 14°28' W 060°52'0 0.0
2018-Feb-05 10:30N 14°28' W 060°52'0 0.0
2018-Feb-05 10:00N 14°28' W 060°52'0 0.0
2018-Feb-05 09:30N 14°28' W 060°52'0 0.0
2018-Feb-05 09:00N 14°28' W 060°52'0 0.0
2018-Feb-05 08:27N 14°28' W 060°52'0 0.0
2018-Feb-05 07:54N 14°28' W 060°52'0 0.0
2018-Feb-05 07:30N 14°28' W 060°52'0 0.0
2018-Feb-05 06:57N 14°28' W 060°52'0 0.0
2018-Feb-05 06:30N 14°28' W 060°52'0 0.0
2018-Feb-05 05:30N 14°28' W 060°52'0 0.0
2018-Feb-05 05:00N 14°28' W 060°52'0 0.0
2018-Feb-05 04:30N 14°28' W 060°52'0 0.0
2018-Feb-05 04:00N 14°28' W 060°52'0 0.0
2018-Feb-05 03:30N 14°28' W 060°52'0 0.0
2018-Feb-05 03:00N 14°28' W 060°52'0 0.0
2018-Feb-05 02:21N 14°28' W 060°52'0 0.0
2018-Feb-05 02:00N 14°28' W 060°52'0 0.0
2018-Feb-05 01:30N 14°28' W 060°52'0 0.0
2018-Feb-05 01:00N 14°28' W 060°52'0 0.0
2018-Feb-05 00:30N 14°28' W 060°52'0 0.0
2018-Feb-04 23:54N 14°28' W 060°52'0 0.0
2018-Feb-04 23:30N 14°28' W 060°52'0 0.0
2018-Feb-04 23:00N 14°28' W 060°52'0 0.0
2018-Feb-04 22:30N 14°28' W 060°52'0 0.0
2018-Feb-04 22:00N 14°28' W 060°52'0 0.0
2018-Feb-04 21:30N 14°28' W 060°52'0 0.0
2018-Feb-04 21:00N 14°28' W 060°52'  
Track history (hours):
 
Tides and Currents Weather Stations Pressure Air Temp Water Temp Dewpoint Dewpoint Depression Visibility Wind Speed Wind Dir Waves Ship Positions

Yemanja

Last reported at 2018-Feb-14 20:27 UTC. Time now 2018-Feb-25 13:47 UTC.
Position N 16°60' W 062°03'.
Warning: this ship's position is 10 days out of date.

Length 20 m.

Type: Pleasure craft. MMSI: 227428150.

Date/timePositionNaut miles runAvg speedWind from/ knotsBaromVisibWave heightAir tempDewpointWater temp
2018-Feb-14 20:27N 16°60' W 062°03'4 9.4
2018-Feb-14 20:00N 16°56' W 062°02'5 9.6
2018-Feb-14 19:30N 16°51' W 061°60'5 9.6
2018-Feb-14 19:00N 16°47' W 061°58'5 9.4
2018-Feb-14 18:30N 16°42' W 061°56'5 9.3
2018-Feb-14 17:59N 16°38' W 061°54'5 9.3
2018-Feb-14 17:29N 16°33' W 061°53'  
2018-Feb-09 22:10N 14°27' W 060°58'6 0.1
2018-Feb-08 01:27N 14°28' W 060°52'0 0.0
2018-Feb-08 00:39N 14°28' W 060°52'0 0.0
2018-Feb-08 00:15N 14°28' W 060°52'0 0.0
2018-Feb-08 00:00N 14°28' W 060°52'0 0.0
2018-Feb-07 23:24N 14°28' W 060°52'0 0.0
2018-Feb-07 23:00N 14°28' W 060°52'0 0.0
2018-Feb-07 22:30N 14°28' W 060°52'0 0.0
2018-Feb-07 22:00N 14°28' W 060°52'0 0.0
2018-Feb-07 21:30N 14°28' W 060°52'0 0.0
2018-Feb-07 09:30N 14°28' W 060°52'0 0.0
2018-Feb-07 09:00N 14°28' W 060°52'0 0.0
2018-Feb-07 08:30N 14°28' W 060°52'0 0.0
2018-Feb-07 08:00N 14°28' W 060°52'0 0.0
2018-Feb-07 07:30N 14°28' W 060°52'0 0.0
2018-Feb-07 07:00N 14°28' W 060°52'0 0.0
2018-Feb-07 06:30N 14°28' W 060°52'0 0.0
2018-Feb-07 06:00N 14°28' W 060°52'0 0.0
2018-Feb-07 05:30N 14°28' W 060°52'0 0.0
2018-Feb-07 05:00N 14°28' W 060°52'0 0.0
2018-Feb-07 04:30N 14°28' W 060°52'0 0.0
2018-Feb-07 03:57N 14°28' W 060°52'0 0.0
2018-Feb-07 03:27N 14°28' W 060°52'0 0.0
2018-Feb-07 03:00N 14°28' W 060°52'0 0.0
2018-Feb-07 02:30N 14°28' W 060°52'0 0.0
2018-Feb-07 01:57N 14°28' W 060°52'0 0.0
2018-Feb-07 01:27N 14°28' W 060°52'0 0.0
2018-Feb-07 01:00N 14°28' W 060°52'0 0.0
2018-Feb-07 00:30N 14°28' W 060°52'0 0.0
2018-Feb-07 00:00N 14°28' W 060°52'0 0.0
2018-Feb-06 23:30N 14°28' W 060°52'0 0.0
2018-Feb-06 23:00N 14°28' W 060°52'0 0.0
2018-Feb-06 22:30N 14°28' W 060°52'0 0.0
2018-Feb-06 22:00N 14°28' W 060°52'0 0.0
2018-Feb-06 21:27N 14°28' W 060°52'0 0.0
2018-Feb-06 21:00N 14°28' W 060°52'0 0.0
2018-Feb-06 20:27N 14°28' W 060°52'0 0.0
2018-Feb-06 20:00N 14°28' W 060°52'0 0.0
2018-Feb-06 19:30N 14°28' W 060°52'0 0.0
2018-Feb-06 19:00N 14°28' W 060°52'0 0.0
2018-Feb-06 18:30N 14°28' W 060°52'0 0.0
2018-Feb-06 17:54N 14°28' W 060°52'0 0.0
2018-Feb-06 17:30N 14°28' W 060°52'0 0.0
2018-Feb-06 16:57N 14°28' W 060°52'0 0.0
2018-Feb-06 16:27N 14°28' W 060°52'0 0.0
2018-Feb-06 16:00N 14°28' W 060°52'0 0.0
2018-Feb-06 15:30N 14°28' W 060°52'0 0.0
2018-Feb-06 15:00N 14°28' W 060°52'0 0.0
2018-Feb-06 14:30N 14°28' W 060°52'0 0.0
2018-Feb-06 14:00N 14°28' W 060°52'0 0.0
2018-Feb-06 13:30N 14°28' W 060°52'0 0.0
2018-Feb-06 12:57N 14°28' W 060°52'0 0.0
2018-Feb-06 12:30N 14°28' W 060°52'0 0.0
2018-Feb-06 11:57N 14°28' W 060°52'0 0.0
2018-Feb-06 11:24N 14°28' W 060°52'0 0.0
2018-Feb-06 10:57N 14°28' W 060°52'0 0.0
2018-Feb-06 10:30N 14°28' W 060°52'0 0.0
2018-Feb-06 10:00N 14°28' W 060°52'0 0.0
2018-Feb-06 09:30N 14°28' W 060°52'0 0.0
2018-Feb-06 09:00N 14°28' W 060°52'0 0.0
2018-Feb-06 08:27N 14°28' W 060°52'0 0.0
2018-Feb-06 08:00N 14°28' W 060°52'0 0.0
2018-Feb-06 07:30N 14°28' W 060°52'0 0.0
2018-Feb-06 07:00N 14°28' W 060°52'0 0.0
2018-Feb-06 06:30N 14°28' W 060°52'0 0.0
2018-Feb-06 05:57N 14°28' W 060°52'0 0.0
2018-Feb-06 05:30N 14°28' W 060°52'0 0.0
2018-Feb-06 05:00N 14°28' W 060°52'0 0.0
2018-Feb-06 04:30N 14°28' W 060°52'0 0.0
2018-Feb-06 04:00N 14°28' W 060°52'0 0.0
2018-Feb-06 03:21N 14°28' W 060°52'0 0.0
2018-Feb-06 02:57N 14°28' W 060°52'0 0.0
2018-Feb-06 02:24N 14°28' W 060°52'0 0.0
2018-Feb-06 01:21N 14°28' W 060°52'0 0.0
2018-Feb-06 00:54N 14°28' W 060°52'0 0.0
2018-Feb-05 23:54N 14°28' W 060°52'0 0.0
2018-Feb-05 23:24N 14°28' W 060°52'0 0.0
2018-Feb-05 22:48N 14°28' W 060°52'0 0.0
2018-Feb-05 22:30N 14°28' W 060°52'0 0.0
2018-Feb-05 22:00N 14°28' W 060°52'0 0.0
2018-Feb-05 20:48N 14°28' W 060°52'0 0.0
2018-Feb-05 20:24N 14°28' W 060°52'0 0.0
2018-Feb-05 20:00N 14°28' W 060°52'0 0.0
2018-Feb-05 19:30N 14°28' W 060°52'0 0.0
2018-Feb-05 19:00N 14°28' W 060°52'0 0.0
2018-Feb-05 18:18N 14°28' W 060°52'0 0.0
2018-Feb-05 18:00N 14°28' W 060°52'0 0.0
2018-Feb-05 17:18N 14°28' W 060°52'0 0.0
2018-Feb-05 17:00N 14°28' W 060°52'0 0.0
2018-Feb-05 16:09N 14°28' W 060°52'0 0.0
2018-Feb-05 16:00N 14°28' W 060°52'0 0.0
2018-Feb-05 15:24N 14°28' W 060°52'0 0.0
2018-Feb-05 15:00N 14°28' W 060°52'0 0.0
2018-Feb-05 14:30N 14°28' W 060°52'0 0.0
2018-Feb-05 13:57N 14°28' W 060°52'0 0.0
2018-Feb-05 13:30N 14°28' W 060°52'0 0.1
2018-Feb-05 13:00N 14°28' W 060°52'0 0.0
2018-Feb-05 12:30N 14°28' W 060°52'0 0.0
2018-Feb-05 12:00N 14°28' W 060°52'0 0.0
2018-Feb-05 11:30N 14°28' W 060°52'0 0.0
2018-Feb-05 11:00N 14°28' W 060°52'0 0.0
2018-Feb-05 10:30N 14°28' W 060°52'0 0.0
2018-Feb-05 10:00N 14°28' W 060°52'0 0.0
2018-Feb-05 09:30N 14°28' W 060°52'0 0.0
2018-Feb-05 09:00N 14°28' W 060°52'0 0.0
2018-Feb-05 08:27N 14°28' W 060°52'0 0.0
2018-Feb-05 07:54N 14°28' W 060°52'0 0.0
2018-Feb-05 07:30N 14°28' W 060°52'0 0.0
2018-Feb-05 06:57N 14°28' W 060°52'0 0.0
2018-Feb-05 06:30N 14°28' W 060°52'0 0.0
2018-Feb-05 05:30N 14°28' W 060°52'0 0.0
2018-Feb-05 05:00N 14°28' W 060°52'0 0.0
2018-Feb-05 04:30N 14°28' W 060°52'0 0.0
2018-Feb-05 04:00N 14°28' W 060°52'0 0.0
2018-Feb-05 03:30N 14°28' W 060°52'0 0.0
2018-Feb-05 03:00N 14°28' W 060°52'0 0.0
2018-Feb-05 02:21N 14°28' W 060°52'0 0.0
2018-Feb-05 02:00N 14°28' W 060°52'0 0.0
2018-Feb-05 01:30N 14°28' W 060°52'0 0.0
2018-Feb-05 01:00N 14°28' W 060°52'0 0.0
2018-Feb-05 00:30N 14°28' W 060°52'0 0.0
2018-Feb-04 23:54N 14°28' W 060°52'0 0.0
2018-Feb-04 23:30N 14°28' W 060°52'0 0.0
2018-Feb-04 23:00N 14°28' W 060°52'0 0.0
2018-Feb-04 22:30N 14°28' W 060°52'0 0.0
2018-Feb-04 22:00N 14°28' W 060°52'0 0.0
2018-Feb-04 21:30N 14°28' W 060°52'0 0.0
2018-Feb-04 21:00N 14°28' W 060°52'  

Dump ship's entire track history